Time;durP1;ratioP1;P1;durP2;ratioP2;P2;SDS_P1;SDS_P2;PMS_P1;PMS_P2;Temp;Humidity;BMP_temperature;BMP_pressure;BME280_temperature;BME280_humidity;BME280_pressure;Samples;Min_cycle;Max_cycle;Signal;HPM_P1;HPM_P2
2022/01/23 00:00:35;;;;;;;;;;;;;;;-3.96;100.00;99334.02;1745386;82;21039;-70
2022/01/23 00:03:05;;;;;;;13.78;6.15;;;;;;;-3.93;100.00;99335.00;1749213;82;20113;-70
2022/01/23 00:05:34;;;;;;;13.45;6.10;;;;;;;-3.99;100.00;99335.23;1723429;82;21000;-70
2022/01/23 00:07:58;;;;;;;12.55;6.67;;;;;;;-4.03;100.00;99336.61;1731861;82;21055;-70
2022/01/23 00:10:25;;;;;;;14.50;7.12;;;;;;;-4.03;100.00;99338.77;1736917;82;21047;-70
2022/01/23 00:13:05;;;;;;;14.45;7.10;;;;;;;-4.02;100.00;99335.61;1729368;82;21054;-70
2022/01/23 00:18:06;;;;;;;13.32;6.33;;;;;;;-4.01;100.00;99341.25;1753626;82;21043;-69
2022/01/23 00:20:33;;;;;;;14.23;6.53;;;;;;;-3.99;100.00;99347.70;1750586;82;21020;-69
2022/01/23 00:23:12;;;;;;;12.65;6.20;;;;;;;-3.93;100.00;99348.30;1739200;82;21098;-69
2022/01/23 00:31:00;;;;;;;11.30;5.65;;;;;;;-3.80;100.00;99350.58;1736825;82;21106;-69
2022/01/23 00:33:26;;;;;;;10.82;5.72;;;;;;;-3.82;100.00;99353.09;1746684;82;21014;-69
2022/01/23 00:35:53;;;;;;;9.45;5.50;;;;;;;-3.84;100.00;99351.14;1733760;82;21072;-69
2022/01/23 00:38:20;;;;;;;9.98;5.55;;;;;;;-3.89;100.00;99339.73;1729631;82;21438;-69
2022/01/23 00:40:47;;;;;;;9.90;5.65;;;;;;;-3.93;100.00;99341.11;1740816;82;21613;-69
2022/01/23 00:43:26;;;;;;;11.48;5.95;;;;;;;-3.93;100.00;99348.30;1743194;80;21052;-69
2022/01/23 00:45:49;;;;;;;10.78;5.33;;;;;;;-3.89;100.00;99359.67;1723631;82;21601;-69
2022/01/23 00:48:15;;;;;;;12.93;5.58;;;;;;;-3.84;100.00;99359.95;1723366;83;21018;-70
2022/01/23 00:50:44;;;;;;;9.80;6.00;;;;;;;-3.77;100.00;99356.84;1726041;82;21581;-70
2022/01/23 00:53:13;;;;;;;10.13;6.10;;;;;;;-3.69;100.00;99357.23;1721061;82;21047;-70
2022/01/23 00:55:43;;;;;;;13.70;5.75;;;;;;;-3.64;100.00;99353.48;1725177;82;21047;-70
2022/01/23 00:58:10;;;;;;;10.08;5.47;;;;;;;-3.58;100.00;99351.41;1725009;82;21371;-69
2022/01/23 01:00:39;;;;;;;10.15;5.12;;;;;;;-3.54;100.00;99348.66;1734188;82;20996;-70
2022/01/23 01:03:06;;;;;;;9.28;5.47;;;;;;;-3.57;100.00;99342.39;1729199;82;21644;-70
2022/01/23 01:05:34;;;;;;;7.83;4.60;;;;;;;-3.64;100.00;99342.34;1725113;82;21003;-70
2022/01/23 01:08:04;;;;;;;10.55;5.30;;;;;;;-3.66;100.00;99343.55;1735763;82;21082;-69
2022/01/23 01:10:53;;;;;;;10.58;5.45;;;;;;;-3.68;100.00;99341.56;1733920;82;21063;-69
2022/01/23 01:13:12;;;;;;;10.03;5.60;;;;;;;-3.70;100.00;99347.09;1741936;82;21589;-70
2022/01/23 01:15:54;;;;;;;12.03;6.08;;;;;;;-3.70;100.00;99349.76;1727276;82;21035;-69
2022/01/23 01:31:56;;;;;;;11.12;5.47;;;;;;;-3.61;100.00;99349.11;1733289;82;21095;-70
2022/01/23 01:34:32;;;;;;;11.05;5.90;;;;;;;-3.63;100.00;99353.81;1728736;82;21063;-70
2022/01/23 01:36:50;;;;;;;11.88;6.37;;;;;;;-3.65;100.00;99354.52;1716710;83;21082;-70
2022/01/23 01:39:23;;;;;;;13.30;6.03;;;;;;;-3.63;100.00;99355.14;1725609;82;21589;-70
2022/01/23 01:41:51;;;;;;;12.28;6.65;;;;;;;-3.64;100.00;99356.14;1718470;82;21134;-70
2022/01/23 01:44:18;;;;;;;14.13;6.15;;;;;;;-3.66;100.00;99360.34;1729161;82;21494;-71
2022/01/23 01:46:51;;;;;;;11.80;5.78;;;;;;;-3.65;100.00;99361.97;1739560;82;21083;-69
2022/01/23 01:49:26;;;;;;;;;;;;;;;-3.62;100.00;99360.28;1729552;82;21035;-71
2022/01/23 01:51:45;;;;;;;11.43;5.78;;;;;;;-3.62;100.00;99362.11;1734605;82;20425;-69
2022/01/23 01:54:18;;;;;;;9.23;5.33;;;;;;;-3.73;100.00;99361.28;1756454;80;21004;-69
2022/01/23 01:56:51;;;;;;;12.23;6.22;;;;;;;-3.82;100.00;99365.89;1684576;84;21616;-69
2022/01/23 01:59:45;;;;;;;11.08;6.12;;;;;;;-3.88;100.00;99371.97;1725025;82;21532;-69
2022/01/23 02:10:06;;;;;;;13.93;6.80;;;;;;;-3.98;100.00;99386.08;1735591;82;21026;-69
2022/01/23 02:15:45;;;;;;;13.10;7.72;;;;;;;-3.94;100.00;99392.67;1726369;82;21034;-69
2022/01/23 02:18:13;;;;;;;14.65;8.03;;;;;;;-3.95;100.00;99392.34;1727769;82;21536;-69
2022/01/23 02:23:52;;;;;;;14.53;8.13;;;;;;;-3.96;100.00;99396.00;1733494;82;21088;-69
2022/01/23 02:51:03;;;;;;;14.25;7.90;;;;;;;-3.94;100.00;99417.94;1723740;82;21027;-69
2022/01/23 02:55:58;;;;;;;15.55;8.08;;;;;;;-3.93;100.00;99425.41;1741748;82;21704;-69
2022/01/23 02:58:33;;;;;;;14.63;7.17;;;;;;;-3.94;100.00;99424.58;1740348;82;21039;-69
2022/01/23 03:01:10;;;;;;;16.62;8.20;;;;;;;-3.96;100.00;99426.58;1738779;82;21086;-69
2022/01/23 03:03:49;;;;;;;15.32;8.35;;;;;;;-3.95;100.00;99433.56;1744167;80;21828;-69
2022/01/23 03:06:39;;;;;;;12.43;6.75;;;;;;;-4.01;100.00;99431.66;1749134;82;21654;-69
2022/01/23 03:30:17;;;;;;;9.43;5.25;;;;;;;-4.17;100.00;99467.22;1740179;82;21039;-69
2022/01/23 03:32:40;;;;;;;10.95;5.25;;;;;;;-4.23;100.00;99464.48;1733725;82;21138;-69
2022/01/23 03:35:05;;;;;;;10.45;5.20;;;;;;;-4.24;100.00;99469.47;1743000;82;21047;-70
2022/01/23 03:37:32;;;;;;;12.70;5.70;;;;;;;-4.22;100.00;99468.30;1730860;82;21078;-70
2022/01/23 03:39:58;;;;;;;11.10;6.20;;;;;;;-4.21;100.00;99474.41;1727070;82;21047;-69
2022/01/23 03:42:27;;;;;;;10.05;5.78;;;;;;;-4.20;100.00;99484.88;1733950;82;21074;-69
2022/01/23 03:45:26;;;;;;;11.40;6.58;;;;;;;-4.18;100.00;99483.37;1729477;82;21003;-70
2022/01/23 03:47:37;;;;;;;10.08;6.10;;;;;;;-4.16;100.00;99494.64;1737302;82;21114;-69
2022/01/23 03:50:01;;;;;;;11.83;6.45;;;;;;;-4.12;100.00;99491.94;1726403;81;21047;-70
2022/01/23 03:52:39;;;;;;;10.75;6.12;;;;;;;-4.08;100.00;99494.05;1723311;82;21560;-70
2022/01/23 03:55:07;;;;;;;11.53;6.75;;;;;;;-4.03;100.00;99497.47;1727136;82;21039;-70
2022/01/23 03:57:34;;;;;;;10.50;6.22;;;;;;;-4.05;100.00;99499.50;1745838;81;21070;-70
2022/01/23 04:00:02;;;;;;;;;;;;;;;-4.04;100.00;99501.16;1746800;82;21026;-70
2022/01/23 04:02:29;;;;;;;12.95;7.17;;;;;;;-4.04;100.00;99497.97;1744693;82;20114;-68
2022/01/23 04:04:55;;;;;;;12.25;6.67;;;;;;;-4.07;100.00;99504.16;1735130;82;21046;-69
2022/01/23 04:07:26;;;;;;;11.95;6.75;;;;;;;-4.08;100.00;99504.69;1725849;82;21508;-69
2022/01/23 04:09:52;;;;;;;11.57;7.30;;;;;;;-4.04;100.00;99518.44;1731954;80;21043;-70
2022/01/23 04:12:44;;;;;;;11.12;7.08;;;;;;;-4.01;100.00;99515.41;1750519;82;21089;-69
2022/01/23 04:15:14;;;;;;;9.80;6.35;;;;;;;-4.00;100.00;99524.22;1724889;82;21482;-70
2022/01/23 05:00:00;;;;;;;13.40;7.35;;;;;;;-4.70;100.00;99623.66;1725028;82;21012;-70
2022/01/23 05:04:59;;;;;;;14.28;8.75;;;;;;;-4.79;100.00;99645.15;1661489;86;21534;-70
2022/01/23 05:07:47;;;;;;;14.58;9.23;;;;;;;-4.85;100.00;99651.97;1716775;82;21083;-69
2022/01/23 05:10:31;;;;;;;16.02;8.80;;;;;;;-5.03;100.00;99666.84;1719181;82;20996;-69
2022/01/23 05:13:02;;;;;;;16.95;9.63;;;;;;;-5.17;100.00;99671.55;1730023;82;21600;-72
2022/01/23 05:15:29;;;;;;;16.48;9.18;;;;;;;-5.29;100.00;99671.63;1737019;81;21522;-72
2022/01/23 05:17:56;;;;;;;14.95;8.70;;;;;;;-5.40;100.00;99671.99;1720788;82;21531;-72
2022/01/23 05:20:27;;;;;;;15.43;8.55;;;;;;;-5.47;100.00;99682.95;1711752;82;20996;-72
2022/01/23 05:22:57;;;;;;;15.05;8.45;;;;;;;-5.52;100.00;99688.77;1738417;82;21080;-73
2022/01/23 05:25:25;;;;;;;15.63;8.78;;;;;;;-5.52;100.00;99695.89;1724979;82;21059;-73
2022/01/23 05:27:54;;;;;;;17.55;8.58;;;;;;;-5.53;100.00;99697.70;1727474;82;21585;-72
2022/01/23 05:30:17;;;;;;;15.05;9.30;;;;;;;-5.55;100.00;99691.77;1716132;82;21063;-73
2022/01/23 05:32:43;;;;;;;17.40;8.88;;;;;;;-5.55;100.00;99689.60;1711820;82;21043;-71
2022/01/23 05:35:13;;;;;;;14.23;8.50;;;;;;;-5.60;100.00;99695.41;1737001;82;21043;-69
2022/01/23 05:37:40;;;;;;;16.73;9.10;;;;;;;-5.67;100.00;99691.78;1710654;82;21561;-69
2022/01/23 05:40:12;;;;;;;15.40;8.55;;;;;;;-5.72;100.00;99693.30;1723114;82;21024;-66
2022/01/23 05:42:41;;;;;;;19.23;9.45;;;;;;;-5.80;100.00;99695.45;1726709;82;21099;-67
2022/01/23 05:45:09;;;;;;;15.75;9.10;;;;;;;-5.86;100.00;99706.78;1737878;82;21020;-68
2022/01/23 05:47:37;;;;;;;16.17;8.65;;;;;;;-5.89;100.00;99712.91;1734666;82;21616;-67
2022/01/23 05:50:08;;;;;;;17.85;10.43;;;;;;;-5.95;100.00;99714.39;1729267;82;21040;-68
2022/01/23 05:52:39;;;;;;;17.98;10.05;;;;;;;-6.04;100.00;99714.08;1707190;82;21074;-68
2022/01/23 05:55:09;;;;;;;19.73;9.23;;;;;;;-6.09;100.00;99723.01;1677546;82;21102;-68
2022/01/23 05:57:38;;;;;;;17.17;9.10;;;;;;;-6.12;100.00;99720.69;1717089;82;21466;-68
2022/01/23 06:00:11;;;;;;;16.77;8.88;;;;;;;-6.11;100.00;99732.95;1702980;82;21044;-68
2022/01/23 06:02:39;;;;;;;17.67;9.28;;;;;;;-6.08;100.00;99736.59;1726083;82;21511;-68
2022/01/23 06:05:08;;;;;;;15.90;9.18;;;;;;;-6.11;100.00;99739.58;1721088;82;21573;-68
2022/01/23 06:10:58;;;;;;;19.80;10.10;;;;;;;-6.12;100.00;99744.54;1799552;79;22947;-68
2022/01/23 06:13:32;;;;;;;18.55;10.82;;;;;;;-6.22;100.00;99754.48;1751731;82;21040;-68
2022/01/23 06:15:58;;;;;;;18.37;11.18;;;;;;;-6.18;100.00;99762.43;1723029;82;21529;-68
2022/01/23 06:18:26;;;;;;;20.88;10.20;;;;;;;-6.20;100.00;99768.41;1726813;82;20999;-67
2022/01/23 06:21:12;;;;;;;20.15;10.48;;;;;;;-6.25;100.00;99767.56;1750006;80;21063;-68
2022/01/23 06:23:54;;;;;;;17.35;9.20;;;;;;;-6.37;100.00;99767.53;1734048;82;21063;-68
2022/01/23 06:26:20;;;;;;;19.17;10.13;;;;;;;-6.44;100.00;99774.96;1732711;82;21628;-68
2022/01/23 06:28:59;;;;;;;18.12;10.63;;;;;;;-6.48;100.00;99784.25;1752632;82;21051;-68
2022/01/23 06:31:25;;;;;;;20.45;9.90;;;;;;;-6.52;100.00;99786.88;1749510;82;21059;-67
2022/01/23 06:33:51;;;;;;;18.48;10.78;;;;;;;-6.56;100.00;99794.32;1752223;82;21042;-68
2022/01/23 06:36:19;;;;;;;19.92;9.98;;;;;;;-6.55;100.00;99797.28;1741358;82;21109;-67
2022/01/23 06:38:45;;;;;;;20.43;10.72;;;;;;;-6.60;100.00;99803.08;1731165;82;21097;-68
2022/01/23 06:41:13;;;;;;;17.73;9.83;;;;;;;-6.66;100.00;99801.58;1727901;82;21089;-68
2022/01/23 06:43:46;;;;;;;17.70;10.28;;;;;;;-6.66;100.00;99812.16;1723750;82;21051;-68
2022/01/23 06:46:15;;;;;;;18.15;9.70;;;;;;;-6.66;100.00;99826.73;1743713;82;21050;-68
2022/01/23 06:48:42;;;;;;;17.62;9.65;;;;;;;-6.67;100.00;99823.25;1723828;82;21031;-68
2022/01/23 06:51:09;;;;;;;22.05;10.58;;;;;;;-6.65;100.00;99824.39;1753463;82;21038;-68
2022/01/23 06:53:36;;;;;;;22.73;10.28;;;;;;;-6.68;100.00;99836.14;1744598;82;20991;-67
2022/01/23 06:56:03;;;;;;;21.90;12.07;;;;;;;-6.69;100.00;99834.96;1725435;82;21066;-68
2022/01/23 06:58:31;;;;;;;22.25;12.45;;;;;;;-6.70;100.00;99841.27;1729941;80;20992;-69
2022/01/23 07:00:57;;;;;;;;;;;;;;;-6.72;100.00;99848.03;1722513;83;21024;-68
2022/01/23 07:03:32;;;;;;;30.52;13.88;;;;;;;-6.74;100.00;99855.32;1715155;82;20476;-68
2022/01/23 07:06:09;;;;;;;24.15;12.93;;;;;;;-6.76;100.00;99858.59;1683343;84;21494;-68
2022/01/23 07:08:46;;;;;;;;;;;;;;;-6.75;100.00;99857.63;1697464;84;21101;-68
2022/01/23 07:11:14;;;;;;;;;;;;;;;-6.77;100.00;99862.75;1682893;84;20134;-68
2022/01/23 07:13:42;;;;;;;22.98;11.40;;;;;;;-6.84;100.00;99870.49;1673923;84;20141;-68
2022/01/23 07:16:19;;;;;;;22.95;11.83;;;;;;;-6.89;100.00;99875.91;1610759;87;21652;-67
2022/01/23 07:18:54;;;;;;;23.50;11.63;;;;;;;-6.90;100.00;99877.72;1678603;84;21971;-68
2022/01/23 07:21:22;;;;;;;20.30;11.57;;;;;;;-6.88;100.00;99877.58;1679817;84;21102;-68
2022/01/23 07:23:50;;;;;;;20.68;11.50;;;;;;;-6.85;100.00;99882.06;1671500;86;21043;-68
2022/01/23 07:26:19;;;;;;;18.85;10.70;;;;;;;-6.80;100.00;99887.69;1677788;84;21588;-67
2022/01/23 07:28:47;;;;;;;20.85;11.50;;;;;;;-6.74;100.00;99894.20;1693282;84;21066;-68
2022/01/23 07:31:31;;;;;;;21.93;11.85;;;;;;;-6.71;100.00;99896.52;1686232;83;21039;-67
2022/01/23 07:33:42;;;;;;;21.87;11.75;;;;;;;-6.66;100.00;99907.48;1738686;81;21016;-68
2022/01/23 07:36:09;;;;;;;21.40;11.90;;;;;;;-6.60;100.00;99914.79;1709971;83;21094;-67
2022/01/23 07:38:36;;;;;;;20.17;11.68;;;;;;;-6.58;100.00;99924.22;1713431;82;21039;-68
2022/01/23 07:41:10;;;;;;;21.65;11.83;;;;;;;-6.59;100.00;99920.43;1725167;82;21071;-68
2022/01/23 07:43:41;;;;;;;23.67;12.43;;;;;;;-6.60;100.00;99927.53;1717097;82;21040;-68
2022/01/23 07:46:21;;;;;;;24.10;12.70;;;;;;;-6.58;100.00;99932.17;1722292;82;21596;-68
2022/01/23 07:49:02;;;;;;;20.00;11.15;;;;;;;-6.52;100.00;99932.05;1717073;82;21057;-67
2022/01/23 07:51:46;;;;;;;25.85;12.93;;;;;;;-6.46;100.00;99938.03;1724649;83;21120;-68
2022/01/23 07:54:15;;;;;;;19.10;11.38;;;;;;;-6.36;100.00;99945.84;1725062;82;21061;-68
2022/01/23 07:56:49;;;;;;;19.55;11.12;;;;;;;-6.29;100.00;99939.76;1699813;82;21064;-68
2022/01/23 07:59:36;;;;;;;20.70;12.63;;;;;;;-6.20;100.00;99940.11;1673444;84;21074;-68
2022/01/23 08:02:16;;;;;;;23.57;13.13;;;;;;;-6.12;100.00;99949.92;1652799;82;21106;-68
2022/01/23 08:04:48;;;;;;;24.00;12.90;;;;;;;-6.05;100.00;99957.56;1733330;82;21119;-67
2022/01/23 08:07:31;;;;;;;24.50;12.55;;;;;;;-6.00;100.00;99953.12;1721597;82;21059;-68
2022/01/23 08:09:50;;;;;;;22.50;13.00;;;;;;;-5.94;100.00;99956.44;1715242;82;21031;-69
2022/01/23 08:12:17;;;;;;;22.90;12.05;;;;;;;-5.86;100.00;99963.10;1738327;82;21149;-68
2022/01/23 08:14:44;;;;;;;21.93;12.35;;;;;;;-5.78;100.00;99978.52;1753062;82;21110;-68
2022/01/23 08:17:11;;;;;;;24.40;12.75;;;;;;;-5.72;100.00;99985.82;1752430;82;21510;-68
2022/01/23 08:19:38;;;;;;;21.25;12.25;;;;;;;-5.68;100.00;99975.23;1739429;82;21046;-68
2022/01/23 08:22:05;;;;;;;22.32;11.80;;;;;;;-5.63;100.00;99988.81;1729690;82;21086;-68
2022/01/23 08:24:33;;;;;;;26.95;14.33;;;;;;;-5.58;100.00;99989.17;1746220;82;21102;-68
2022/01/23 08:26:59;;;;;;;25.77;14.45;;;;;;;-5.52;100.00;100008.90;1752642;82;21043;-67
2022/01/23 08:29:25;;;;;;;26.17;14.40;;;;;;;-5.41;100.00;100007.27;1732815;81;21027;-68
2022/01/23 08:31:52;;;;;;;26.15;14.30;;;;;;;-5.35;100.00;100017.74;1752289;82;21110;-68
2022/01/23 08:34:18;;;;;;;23.83;13.85;;;;;;;-5.33;100.00;100015.25;1740813;82;21175;-68
2022/01/23 08:36:44;;;;;;;21.93;12.80;;;;;;;-5.28;100.00;100023.53;1746380;80;21493;-68
2022/01/23 08:39:11;;;;;;;25.27;13.72;;;;;;;-5.25;100.00;100025.89;1731048;81;20967;-68
2022/01/23 08:41:50;;;;;;;;;;;;;;;-5.20;100.00;100029.36;1741237;80;21054;-68
2022/01/23 08:44:23;;;;;;;23.83;13.38;;;;;;;-5.11;100.00;100026.57;1741852;82;20139;-68
2022/01/23 08:46:50;;;;;;;26.25;13.48;;;;;;;-5.12;100.00;100034.19;1751606;82;21039;-68
2022/01/23 08:49:20;;;;;;;24.80;13.32;;;;;;;-5.09;100.00;100040.50;1714448;83;21470;-68
2022/01/23 08:51:47;;;;;;;25.05;13.95;;;;;;;-5.02;100.00;100045.97;1723348;83;21074;-68
2022/01/23 08:54:14;;;;;;;23.98;13.95;;;;;;;-4.96;100.00;100051.14;1730870;82;21601;-69
2022/01/23 08:56:40;;;;;;;;;;;;;;;-4.93;100.00;100048.98;1738016;82;21684;-70
2022/01/23 08:59:07;;;;;;;22.48;12.53;;;;;;;-4.88;100.00;100056.44;1738249;82;20460;-69
2022/01/23 09:01:34;;;;;;;23.95;13.20;;;;;;;-4.85;100.00;100062.77;1729609;82;21868;-71
2022/01/23 09:04:03;;;;;;;23.42;13.30;;;;;;;-4.79;100.00;100063.42;1750412;82;21038;-71
2022/01/23 09:06:29;;;;;;;26.80;14.00;;;;;;;-4.77;100.00;100062.26;1740125;82;21061;-68
2022/01/23 09:08:59;;;;;;;;;;;;;;;-4.72;100.00;100057.78;1748635;82;21070;-74
2022/01/23 09:11:37;;;;;;;24.82;12.90;;;;;;;-4.67;100.00;100074.03;1708806;81;20129;-70
2022/01/23 09:14:06;;;;;;;21.25;12.65;;;;;;;-4.61;100.00;100075.56;1734392;81;21555;-71
2022/01/23 09:16:22;;;;;;;27.45;15.38;;;;;;;-4.47;100.00;100071.39;1743698;81;21034;-72
2022/01/23 09:18:49;;;;;;;30.43;16.37;;;;;;;-4.35;100.00;100071.86;1741317;81;21042;-73
2022/01/23 09:21:16;;;;;;;29.15;17.27;;;;;;;-4.22;100.00;100066.88;1743343;81;21046;-73
2022/01/23 09:23:43;;;;;;;24.82;13.40;;;;;;;-4.11;100.00;100072.65;1746086;81;21506;-73
2022/01/23 09:26:14;;;;;;;25.40;14.75;;;;;;;-4.02;100.00;100081.45;1758392;81;21533;-74
2022/01/23 09:28:40;;;;;;;22.40;13.18;;;;;;;-4.00;100.00;100078.63;1740512;81;21019;-73
2022/01/23 09:31:06;;;;;;;21.23;12.73;;;;;;;-3.87;100.00;100074.93;1742064;81;21058;-70
2022/01/23 09:33:33;;;;;;;20.05;12.50;;;;;;;-3.81;100.00;100082.22;1739368;81;21007;-70
2022/01/23 09:36:00;;;;;;;21.35;11.70;;;;;;;-3.76;100.00;100082.05;1732027;81;21035;-70
2022/01/23 09:38:26;;;;;;;21.73;12.13;;;;;;;-3.78;100.00;100080.05;1753707;81;20983;-69
2022/01/23 09:40:56;;;;;;;20.00;11.30;;;;;;;-3.76;100.00;100082.55;1758467;81;21039;-70
2022/01/23 09:43:23;;;;;;;16.93;9.80;;;;;;;-3.76;100.00;100081.22;1760106;81;20983;-70
2022/01/23 09:45:52;;;;;;;15.93;8.95;;;;;;;-3.75;100.00;100084.19;1753636;81;21118;-68
2022/01/23 09:48:19;;;;;;;14.23;8.25;;;;;;;-3.72;100.00;100093.98;1749959;81;21552;-69
2022/01/23 09:50:47;;;;;;;11.88;6.70;;;;;;;-3.65;100.00;100095.48;1757047;81;21722;-69
2022/01/23 09:53:14;;;;;;;13.50;7.92;;;;;;;-3.61;100.00;100095.44;1740115;81;21086;-69
2022/01/23 09:55:43;;;;;;;13.15;7.55;;;;;;;-3.60;100.00;100094.45;1711044;83;21180;-69
2022/01/23 09:58:14;;;;;;;14.23;8.15;;;;;;;-3.58;100.00;100092.46;1687012;84;21003;-70
2022/01/23 10:00:41;;;;;;;13.15;8.38;;;;;;;-3.46;100.00;100088.90;1682454;84;21139;-70
2022/01/23 10:03:08;;;;;;;17.30;9.10;;;;;;;-3.35;100.00;100091.18;1678969;84;21607;-70
2022/01/23 10:05:37;;;;;;;13.58;8.38;;;;;;;-3.14;100.00;100094.90;1683003;83;21122;-69
2022/01/23 10:08:06;;;;;;;14.28;9.35;;;;;;;-3.06;100.00;100096.19;1695626;83;21061;-70
2022/01/23 10:10:38;;;;;;;14.35;7.97;;;;;;;-2.99;100.00;100096.81;1688215;83;21079;-70
2022/01/23 10:13:01;;;;;;;13.50;8.08;;;;;;;-2.96;100.00;100105.78;1684002;84;21559;-70
2022/01/23 10:15:31;;;;;;;13.88;8.48;;;;;;;-2.93;100.00;100111.59;1693675;84;21526;-70
2022/01/23 10:17:59;;;;;;;14.38;7.92;;;;;;;-2.88;100.00;100121.22;1678313;85;21039;-70
2022/01/23 10:20:25;;;;;;;12.50;7.28;;;;;;;-2.91;100.00;100114.92;1696505;83;21054;-69
2022/01/23 10:22:54;;;;;;;;;;;;;;;-2.91;100.00;100116.75;1697606;84;21331;-70
2022/01/23 10:25:23;;;;;;;14.53;7.35;;;;;;;-2.89;100.00;100120.05;1691968;84;20145;-71
2022/01/23 10:27:57;;;;;;;14.70;8.23;;;;;;;-2.96;100.00;100133.25;1692224;84;21505;-71
2022/01/23 10:30:26;;;;;;;13.10;7.28;;;;;;;-2.94;100.00;100141.88;1697252;84;21022;-71
2022/01/23 10:33:03;;;;;;;11.25;6.22;;;;;;;-2.94;100.00;100140.55;1697256;82;21005;-70
2022/01/23 10:35:31;;;;;;;;;;;;;;;-2.99;100.00;100145.59;1673083;85;21050;-71
2022/01/23 10:38:08;;;;;;;;;;;;;;;-3.03;100.00;100146.44;1681355;85;20127;-71
2022/01/23 10:40:37;;;;;;;8.18;4.87;;;;;;;-3.10;100.00;100148.14;1663397;85;20562;-71
2022/01/23 10:48:47;;;;;;;11.60;6.45;;;;;;;-3.12;100.00;100159.98;1690097;84;20995;-73
2022/01/23 10:51:37;;;;;;;10.85;6.45;;;;;;;-3.07;100.00;100166.93;1679219;84;21099;-72
2022/01/23 10:54:16;;;;;;;6.70;4.35;;;;;;;-3.06;100.00;100165.94;1714262;84;20975;-73
2022/01/23 10:57:06;;;;;;;7.83;4.28;;;;;;;-3.05;100.00;100167.61;1685610;84;21607;-72
2022/01/23 10:59:46;;;;;;;5.12;3.25;;;;;;;-3.03;100.00;100170.91;1698597;84;21018;-72
2022/01/23 11:02:21;;;;;;;6.03;3.60;;;;;;;-3.01;100.00;100169.72;1678872;85;21085;-72
2022/01/23 11:04:59;;;;;;;7.83;4.17;;;;;;;-3.03;100.00;100170.41;1686170;85;20971;-73
2022/01/23 11:07:27;;;;;;;7.62;3.70;;;;;;;-3.00;100.00;100178.55;1672735;84;21648;-71
2022/01/23 11:10:05;;;;;;;6.70;3.85;;;;;;;-2.97;100.00;100191.52;1677495;85;21015;-72
2022/01/23 11:18:12;;;;;;;9.65;4.67;;;;;;;-2.96;100.00;100192.35;1698201;83;21014;-73
2022/01/23 11:20:44;;;;;;;7.15;4.33;;;;;;;-3.00;100.00;100206.52;1714732;83;21050;-73
2022/01/23 11:23:23;;;;;;;7.05;4.28;;;;;;;-2.94;100.00;100209.81;1706627;83;21018;-72
2022/01/23 11:25:59;;;;;;;7.12;3.80;;;;;;;-2.89;100.00;100215.47;1688780;83;21581;-72
2022/01/23 11:28:45;;;;;;;7.67;4.08;;;;;;;-2.93;100.00;100218.14;1705011;83;21058;-72
2022/01/23 11:31:17;;;;;;;8.48;4.28;;;;;;;-2.93;100.00;100216.81;1692645;83;21047;-72
2022/01/23 11:33:44;;;;;;;8.90;4.22;;;;;;;-2.96;100.00;100225.16;1696538;84;21029;-72
2022/01/23 11:36:12;;;;;;;6.40;3.87;;;;;;;-2.97;100.00;100234.64;1711699;83;21141;-71
2022/01/23 11:38:40;;;;;;;;;;;;;;;-2.97;100.00;100242.62;1698959;84;21658;-73
2022/01/23 11:54:45;;;;;;;8.30;5.00;;;;;;;-3.04;100.00;100264.63;1676463;84;21022;-70
2022/01/23 11:57:40;;;;;;;10.30;5.25;;;;;;;-3.08;100.00;100255.81;1708391;83;21074;-72
2022/01/23 12:00:20;;;;;;;11.00;6.40;;;;;;;-3.06;100.00;100271.98;1670748;84;21005;-68
2022/01/23 12:03:07;;;;;;;9.70;5.33;;;;;;;-3.05;100.00;100274.14;1677541;84;21062;-69
2022/01/23 12:05:35;;;;;;;11.03;6.22;;;;;;;-3.06;100.00;100277.80;1676088;84;21036;-70
2022/01/23 12:08:34;;;;;;;12.50;6.55;;;;;;;-2.99;100.00;100276.61;1680125;84;21046;-71
2022/01/23 12:16:57;;;;;;;10.93;6.97;;;;;;;-3.07;100.00;100295.61;1658600;86;21103;-72
2022/01/23 12:19:28;;;;;;;11.83;7.45;;;;;;;-3.09;100.00;100310.11;1727673;82;20981;-74
2022/01/23 12:21:58;;;;;;;13.93;7.90;;;;;;;-3.09;100.00;100320.27;1709957;84;21570;-74
2022/01/23 12:24:25;;;;;;;12.75;7.42;;;;;;;-3.06;100.00;100320.42;1712183;82;21008;-74
2022/01/23 12:27:13;;;;;;;12.40;7.55;;;;;;;-3.06;100.00;100322.58;1717597;82;21554;-73
2022/01/23 12:29:39;;;;;;;10.23;6.40;;;;;;;-3.06;100.00;100328.41;1713053;82;21020;-73
2022/01/23 12:32:19;;;;;;;11.80;6.62;;;;;;;-3.06;100.00;100329.24;1724658;82;21051;-71
2022/01/23 12:34:52;;;;;;;11.08;6.58;;;;;;;-3.05;100.00;100337.54;1714918;82;21100;-73
2022/01/23 12:37:18;;;;;;;10.80;6.20;;;;;;;-3.04;100.00;100338.37;1729049;82;21107;-71
2022/01/23 12:39:46;;;;;;;11.20;6.95;;;;;;;-3.03;100.00;100341.38;1710309;84;21051;-71
2022/01/23 12:42:12;;;;;;;15.35;7.70;;;;;;;-2.97;100.00;100351.34;1720815;82;21090;-69
2022/01/23 12:44:40;;;;;;;12.65;8.05;;;;;;;-2.98;100.00;100355.53;1737888;82;20980;-72
2022/01/23 12:47:19;;;;;;;13.58;8.20;;;;;;;-2.92;100.00;100353.52;1722409;82;21051;-70
2022/01/23 12:49:52;;;;;;;12.65;7.75;;;;;;;-2.92;100.00;100361.50;1727420;82;21023;-69
2022/01/23 12:52:22;;;;;;;11.97;7.17;;;;;;;-2.94;100.00;100370.18;1726563;82;21106;-69
2022/01/23 12:54:59;;;;;;;12.33;6.75;;;;;;;-2.95;100.00;100380.00;1731379;82;21075;-69
2022/01/23 12:57:37;;;;;;;14.25;8.48;;;;;;;-2.97;100.00;100380.65;1731975;82;21039;-69
2022/01/23 13:00:11;;;;;;;16.07;9.00;;;;;;;-3.02;100.00;100375.02;1725195;82;20976;-69
2022/01/23 13:02:45;;;;;;;13.88;8.03;;;;;;;-3.09;100.00;100381.52;1710825;82;21071;-70
2022/01/23 13:05:10;;;;;;;12.35;7.30;;;;;;;-3.08;100.00;100395.64;1729332;82;21020;-68
2022/01/23 13:07:48;;;;;;;12.58;7.72;;;;;;;-3.10;100.00;100404.31;1726304;82;21060;-69
2022/01/23 13:10:33;;;;;;;15.03;8.55;;;;;;;-3.07;100.00;100407.97;1721232;82;21545;-69
2022/01/23 13:13:05;;;;;;;73.40;39.40;;;;;;;-3.04;100.00;100404.47;1715165;82;21874;-72
2022/01/23 13:32:08;;;;;;;18.73;9.78;;;;;;;-2.99;100.00;100437.77;1721252;82;21110;-69
2022/01/23 13:34:35;;;;;;;11.10;6.25;;;;;;;-2.97;100.00;100441.92;1716511;82;21063;-72
2022/01/23 13:37:09;;;;;;;14.90;8.30;;;;;;;-2.96;100.00;100451.59;1700515;82;21059;-70
2022/01/23 13:39:52;;;;;;;14.07;7.20;;;;;;;-3.04;100.00;100448.92;1683491;84;21558;-69
2022/01/23 13:59:20;;;;;;;17.07;10.05;;;;;;;-2.97;100.00;100492.53;1719842;82;20980;-69
2022/01/23 14:02:25;;;;;;;16.00;9.50;;;;;;;-3.03;100.00;100498.54;1719087;82;21127;-67
2022/01/23 14:04:21;;;;;;;16.02;9.73;;;;;;;-3.08;100.00;100499.03;1705560;82;21036;-67
2022/01/23 14:06:47;;;;;;;60.80;33.38;;;;;;;-3.14;100.00;100507.69;1715708;82;21158;-70
2022/01/23 14:09:14;;;;;;;;;;;;;;;-3.19;100.00;100498.54;1721972;82;21082;-67
2022/01/23 14:11:41;;;;;;;15.85;9.28;;;;;;;-3.23;100.00;100495.87;1724230;82;20110;-66
2022/01/23 14:14:14;;;;;;;17.02;9.65;;;;;;;-3.27;100.00;100501.19;1746773;82;21035;-66
2022/01/23 14:16:42;;;;;;;71.85;39.88;;;;;;;-3.27;100.00;100498.03;1733486;82;21945;-69
2022/01/23 14:19:23;;;;;;;22.22;13.08;;;;;;;-3.21;100.00;100505.34;1735903;82;21592;-70
2022/01/23 14:21:53;;;;;;;25.90;14.07;;;;;;;-3.23;100.00;100517.17;1730723;82;21613;-67
2022/01/23 14:24:33;;;;;;;17.87;9.60;;;;;;;-3.28;100.00;100514.16;1741497;82;21509;-69
2022/01/23 14:27:09;;;;;;;18.42;9.80;;;;;;;-3.29;100.00;100507.16;1732176;82;21058;-67
2022/01/23 14:29:52;;;;;;;17.75;10.80;;;;;;;-3.31;100.00;100511.33;1736011;82;21011;-67
2022/01/23 14:32:29;;;;;;;16.23;10.13;;;;;;;-3.38;100.00;100515.64;1735469;82;21098;-69
2022/01/23 14:35:06;;;;;;;17.98;10.75;;;;;;;-3.40;100.00;100522.14;1729874;82;21089;-71
2022/01/23 14:37:34;;;;;;;17.30;10.58;;;;;;;-3.40;100.00;100526.13;1722116;82;21075;-68
2022/01/23 14:40:16;;;;;;;17.87;10.72;;;;;;;-3.42;100.00;100528.10;1733727;82;21019;-68
2022/01/23 14:43:09;;;;;;;18.70;10.60;;;;;;;-3.44;100.00;100536.27;1733334;82;21102;-68
2022/01/23 14:45:41;;;;;;;21.20;11.05;;;;;;;-3.48;100.00;100538.91;1742704;82;21011;-68
2022/01/23 14:48:10;;;;;;;18.70;10.25;;;;;;;-3.51;100.00;100545.37;1732403;82;21121;-68